الصفحة الرئيسية
METAR-TAF:

METAR-TAF

مطار :

Kudat, ماليزيا

دائرة عرض: 06-55N, خط طول: 116-50E, ارتفاع: 3 متر

مراقبة الطقس الحالي

تاريخ ووقت الإصدار 59 دقيقة قبل الساعة 00:00UTC
ريح 4 عقدة من الجنوب الشرقي, الاتجاه يتراوح بين الشرق/الشمال الشرقي و الجنوب
درجة الحرارة 28°درجة مئوية
الرطوبة 89%
ضغط 1010 hPa
الرؤية 10 كم أو أكثر
غيوم قليلة على ارتفاع 1400 قدم
غيوم قليلة على ارتفاع 1600 قدم, مزنة ركامية.
غيوم متفرقة على ارتفاع 14000 قدم
غيوم مفككة على ارتفاع 27000 قدم

METAR: WBKT 290000Z 13004KT 070V190 9999 FEW014 FEW016CB SCT140 BKN270 28/26 Q1010

زمن: 08:59 (00:59 UTC)


TAF: مفقودة

أرصاد الطقس والتوقعات من أكثر من 4000 مطار (تقارير الطقس للمطار METAR والتنبؤ بالطقس بالمطارTAF).

المحطات المتاحة هي النقط الصفراء والحمراء على الخريطة.

حرك المؤشر فوق النقطة لمعرفة اسم المحطة.

ثم انقر لمعرفة أرصاد وتوقعات الطقس.

لتغيير الخارطة: اضغط على الأزرار الخضراء مع رمز الصليب الأسود للتكبير. على الزر الأخضر مع شرطة للتصغير، أو على الأسهم الخضراء للخرائط المجاورة.


METAR-TAF: